General Aviation Weather

Text Reports

Enter one or more of the following location identifiers separated by a space:

Zip Code, Four-Character ICAO or Three-Character IATA airport codes.

METAR - Aviation Routine Weather Report
KCNY - Moab, Utah
Updated at 05:53 GMT le 10 décembre 2016 (22:53 MST):
METAR KCNY 100553Z AUTO 00000KT 10SM CLR M04/M12 A3024 RMK AO2 SLP267 T10441117 10017 21050 53002
TAF - Terminal Area Forecast
KCNY - Moab, Utah
Updated at 05:53 GMT le 10 décembre 2016 (22:53 MST):
No TAF is currently available for this location.
Decoded:
No decoded TAF is available.
PIREP - Pilot Weather Report
KCNY - Moab, Utah
Updated at 05:53 GMT le 10 décembre 2016 (22:53 MST):
No PIREP is currently available for this location.
AIRMET - Airmens Meteorological Information
KCNY - Moab, Utah
Updated at 05:53 GMT le 10 décembre 2016 (22:53 MST):
No AIRMET is currently available for this location.
SIGMET - Significant Meteorological Information
KCNY - Moab, Utah
Updated at 05:53 GMT le 10 décembre 2016 (22:53 MST):
No SIGMET is currently available for this location.
NOTAM - Notice to Airmen
KCNY - Moab, Utah
Updated at 05:53 GMT le 10 décembre 2016 (22:53 MST):
No NOTAM is currently available for this location.
Forecast Area
KCNY - Moab, Utah
Updated at 05:53 GMT le 10 décembre 2016 (22:53 MST):
No NOTAM is currently available for this location.
Aviation Weather Maps